W5SYF Weather Reports


Display with metric or nautical units.
time (UTC)temp
F
wind
direction
speed
MPH
gust
MPH
rain 1hr
in
rain 24hr
in
rain mn
in
humidity
%
barometer
mb
20220525043710 62 262 0.0 3.0 0.09 1.22 1.22 99 1007.4
20220525043210 62 190 2.0 4.0 0.14 1.22 1.22 99 1007.6
20220525042709 62 225 2.0 3.0 0.09 1.20 1.20 99 1007.4
20220525042207 62 169 2.0 4.0 0.07 1.19 1.19 99 1007.5
20220525041706 62 151 3.0 3.0 0.07 1.18 1.18 99 1007.2
20220525041206 61 157 0.0 1.0 0.04 1.18 1.18 99 1006.8
20220525040704 61 71 0.0 4.0 0.04 1.17 1.17 99 1006.2
20220525040203 61 98 1.0 3.0 0.07 1.17 1.17 99 1005.9
20220525035701 61 63 0.0 3.0 0.11 1.16 1.16 99 1005.8
20220525035202 61 45 2.0 2.0 0.11 1.16 1.16 99 1006.5
20220525034701 61 90 2.0 3.0 0.11 1.15 1.15 99 1006.7
20220525034200 61 110 0.0 2.0 0.18 1.14 1.14 99 1006.6
20220525033659 61 109 2.0 5.0 0.18 1.12 1.12 99 1006.7
20220525033158 61 126 3.0 4.0 0.18 1.11 1.11 99 1006.8
20220525032658 61 107 2.0 4.0 0.16 1.09 1.09 99 1006.8
20220525032156 61 63 3.0 4.0 0.21 1.07 1.07 99 1006.8
20220525031655 61 102 2.0 4.0 0.21 1.06 1.06 99 1006.7
20220525031154 60 90 2.0 3.0 0.14 1.04 1.04 99 1006.8
20220525030652 61 106 2.0 3.0 0.11 1.02 1.02 99 1006.9
20220525030151 61 99 2.0 3.0 0.07 1.01 1.01 99 1006.9
20220525025651 60 106 0.0 2.0 0.07 1.00 1.00 99 1007.0
20220525025150 60 147 3.0 4.0 0.07 1.00 1.00 99 1007.2
20220525024648 60 110 2.0 3.0 0.04 0.99 0.99 99 1007.2
20220525024147 60 105 2.0 3.0 0.02 0.99 0.99 99 1007.6
20220525023648 60 124 4.0 5.0 0.02 0.98 0.98 99 1007.2
20220525023146 60 105 2.0 2.0 0.02 0.98 0.98 99 1007.1
20220525022644 60 113 2.0 2.0 0.02 0.98 0.98 99 1007.0
20220525022143 0 120 0.0 2.0 0.07 0.98 0.98 96 1007.1
20220525021643 0 119 2.0 3.0 0.09 0.98 0.98 96 1007.4
20220525021142 0 97 3.0 3.0 0.14 0.97 0.97 96 1007.1
20220525020640 0 129 2.0 3.0 0.14 0.96 0.96 96 1007.4
20220525020138 0 77 0.0 1.0 0.21 0.94 0.94 96 1007.4
20220525015637 0 148 0.0 3.0 0.59 0.94 0.94 96 1007.9
20220525015135 0 114 1.0 3.0 1.06 0.91 0.91 96 1007.9
20220525014634 0 270 0.0 5.0 1.48 0.84 0.84 96 1007.5
20220525014133 0 358 3.0 6.0 1.93 0.70 0.70 96 1008.6
20220525013634 0 179 5.0 7.0 1.01 0.54 0.54 96 1009.2
20220525013132 0 101 2.0 7.0 0.07 0.38 0.38 96 1008.8
20220525012630 0 248 2.0 3.0 0.02 0.37 0.37 96 1006.2
20220525012131 0 99 0.0 3.0 0.02 0.37 0.37 96 1005.6
20220525011630 0 85 0.0 2.0 0.00 0.37 0.37 96 1005.1
20220525011131 0 278 0.0 4.0 0.00 0.37 0.37 96 1004.9
20220525010629 0 276 1.0 2.0 0.00 0.37 0.37 96 1005.2
20220525010128 0 0 0.0 2.0 0.00 0.37 0.37 96 1004.6
20220525005627 0 60 0.0 4.0 0.00 0.37 0.37 96 1004.8
20220525005126 0 342 0.0 4.0 0.00 0.37 0.37 96 1004.6
20220525004624 0 0 3.0 5.0 0.00 0.37 0.37 96 1004.4
20220525004123 0 7 0.0 4.0 0.00 0.37 0.37 96 1004.5
20220525003621 0 352 3.0 3.0 0.00 0.37 0.37 96 1004.3
20220525003119 0 339 2.0 3.0 0.00 0.37 0.37 96 1004.3
20220525002620 0 81 3.0 3.0 0.00 0.37 0.37 96 1004.1
20220525002120 64 14 1.0 5.0 0.00 0.37 0.37 96 1004.1
20220525001618 64 11 0.0 3.0 0.00 0.37 0.37 96 1004.4
20220525001117 64 23 0.0 5.0 0.04 0.37 0.37 95 1004.5
20220525000616 64 15 4.0 7.0 0.26 0.37 0.37 95 1004.4
20220525000117 65 60 5.0 11.0 1.27 0.36 0.36 94 1004.3
20220524235615 66 315 3.0 5.0 1.72 0.32 0.32 92 1004.1
20220524235113 68 322 4.0 8.0 0.68 0.15 0.15 87 1003.6
20220524234613 70 279 0.0 5.0 0.02 0.03 0.03 82 1003.7
20220524234111 71 358 3.0 9.0 0.00 0.03 0.03 79 1003.3
20220524233610 71 39 4.0 7.0 0.00 0.03 0.03 77 1003.4
20220524233110 73 21 2.0 4.0 0.00 0.03 0.03 75 1003.6
20220524232611 74 342 0.0 4.0 0.00 0.03 0.03 74 1003.9
20220524232110 74 353 1.0 4.0 0.00 0.03 0.03 73 1003.8
20220524231609 74 291 0.0 5.0 0.00 0.03 0.03 73 1003.6
20220524231108 74 319 2.0 3.0 0.00 0.03 0.03 74 1003.4
20220524230607 74 32 0.0 5.0 0.00 0.03 0.03 73 1003.5
20220524230105 74 29 2.0 4.0 0.00 0.03 0.03 73 1003.3
20220524225603 74 90 2.0 5.0 0.00 0.03 0.03 73 1003.4
20220524225104 74 345 3.0 4.0 0.00 0.03 0.03 73 1003.1
20220524224602 75 4 2.0 4.0 0.00 0.03 0.03 73 1003.0
20220524224100 74 90 2.0 5.0 0.00 0.03 0.03 73 1002.6
20220524223559 75 80 4.0 4.0 0.00 0.03 0.03 72 1002.9
20220524223059 75 52 4.0 5.0 0.00 0.03 0.03 72 1002.8
20220524222555 74 350 3.0 7.0 0.00 0.03 0.03 72 1002.8
20220524222055 74 8 2.0 5.0 0.00 0.03 0.03 73 1002.9
20220524221553 74 112 5.0 5.0 0.00 0.03 0.03 74 1002.6
20220524221052 74 358 4.0 7.0 0.00 0.03 0.03 73 1002.5
20220524220552 74 9 4.0 6.0 0.00 0.03 0.03 73 1002.7
20220524220051 74 99 2.0 5.0 0.00 0.03 0.03 74 1003.2
20220524215549 73 72 2.0 6.0 0.00 0.03 0.03 73 1003.7
20220524215050 73 85 2.0 4.0 0.00 0.03 0.03 73 1003.7
20220524214548 73 101 3.0 6.0 0.00 0.03 0.03 74 1004.0
20220524214048 74 45 2.0 8.0 0.00 0.03 0.03 72 1004.0
20220524213546 74 72 3.0 6.0 0.00 0.03 0.03 72 1004.3
20220524213047 74 94 3.0 5.0 0.00 0.03 0.03 73 1004.3
20220524212545 74 4 2.0 5.0 0.00 0.03 0.03 73 1004.2
20220524212044 74 306 1.0 3.0 0.00 0.03 0.03 74 1004.6
20220524211542 73 42 6.0 6.0 0.00 0.03 0.03 73 1004.5
20220524211041 73 74 3.0 6.0 0.00 0.03 0.03 73 1004.6
20220524210538 73 357 2.0 7.0 0.00 0.03 0.03 76 1004.8
20220524210038 73 10 0.0 8.0 0.00 0.03 0.03 75 1005.0
20220524205536 74 315 2.0 6.0 0.00 0.03 0.03 73 1004.9
20220524205036 74 304 0.0 5.0 0.00 0.03 0.03 75 1004.8
20220524204534 73 22 8.0 8.0 0.00 0.03 0.03 73 1005.0
20220524204033 74 12 4.0 9.0 0.00 0.03 0.03 73 1004.7
20220524203532 74 8 3.0 8.0 0.00 0.03 0.03 74 1005.0
20220524203032 73 119 2.0 4.0 0.00 0.03 0.03 77 1005.2
20220524202532 72 32 0.0 5.0 0.00 0.03 0.03 77 1005.3
20220524202032 72 21 4.0 5.0 0.00 0.03 0.03 77 1005.3
20220524201531 72 105 3.0 7.0 0.00 0.03 0.03 77 1005.6
20220524201031 72 42 6.0 6.0 0.00 0.03 0.03 76 1005.6
20220524200530 72 45 2.0 5.0 0.00 0.03 0.03 75 1005.7
20220524200030 73 348 1.0 6.0 0.00 0.03 0.03 76 1005.8
20220524195528 72 117 0.0 9.0 0.00 0.03 0.03 76 1005.7
20220524195027 73 75 2.0 5.0 0.00 0.03 0.03 76 1006.0
20220524194526 73 114 0.0 3.0 0.00 0.03 0.03 76 1005.9
20220524194026 73 80 3.0 6.0 0.00 0.03 0.03 76 1006.0
20220524193525 73 94 3.0 4.0 0.00 0.03 0.03 77 1006.3
20220524193024 73 59 2.0 7.0 0.00 0.03 0.03 77 1006.3
20220524192522 73 95 4.0 7.0 0.00 0.03 0.03 76 1006.4
20220524192022 73 322 2.0 9.0 0.00 0.03 0.03 77 1006.7
20220524191520 73 325 1.0 4.0 0.00 0.03 0.03 77 1006.8
20220524191019 73 105 3.0 8.0 0.00 0.03 0.03 76 1006.7
20220524190519 73 340 0.0 7.0 0.00 0.03 0.03 76 1006.5
20220524190017 73 45 3.0 5.0 0.00 0.03 0.03 77 1006.7
20220524185515 72 336 7.0 9.0 0.00 0.03 0.03 79 1006.6
20220524185015 73 289 1.0 5.0 0.00 0.03 0.03 79 1006.8
20220524184511 73 5 2.0 6.0 0.00 0.03 0.03 79 1006.7
20220524184011 72 303 2.0 6.0 0.00 0.03 0.03 82 1007.0
20220524183510 71 22 6.0 10.0 0.00 0.03 0.03 82 1007.2
20220524183009 70 6 7.0 7.0 0.00 0.03 0.03 86 1006.9
20220524182508 69 15 2.0 4.0 0.00 0.03 0.03 89 1007.3
20220524182007 68 27 4.0 4.0 0.00 0.03 0.03 92 1007.2
20220524181507 68 62 3.0 5.0 0.00 0.03 0.03 94 1007.0
20220524181006 67 27 3.0 4.0 0.00 0.03 0.03 95 1007.3
20220524180505 67 292 0.0 5.0 0.00 0.03 0.03 95 1007.2
20220524180004 65 341 2.0 5.0 0.00 0.03 0.03 95 1007.3
20220524175503 66 29 3.0 4.0 0.00 0.03 0.03 95 1007.5
20220524175002 65 246 1.0 6.0 0.07 0.03 0.03 95 1007.3
20220524174501 65 339 2.0 3.0 0.04 0.03 0.03 94 1007.4
20220524174000 64 357 5.0 6.0 0.04 0.02 0.02 94 1007.5
20220524173459 64 352 0.0 6.0 0.04 0.02 0.02 93 1007.9
20220524172957 65 285 3.0 7.0 0.00 0.01 0.01 92 1007.8
20220524172456 65 28 6.0 6.0 0.00 0.01 0.01 92 1008.1
20220524171954 65 322 0.0 5.0 0.00 0.01 0.01 92 1007.8
20220524171453 65 306 4.0 8.0 0.00 0.01 0.01 91 1008.3
20220524170952 66 345 0.0 7.0 0.00 0.01 0.01 90 1008.2
20220524170451 67 65 2.0 4.0 0.00 0.01 0.01 89 1008.0
20220524165949 69 257 2.0 5.0 0.00 0.01 0.01 86 1007.8
20220524165447 70 21 3.0 5.0 0.00 0.01 0.01 84 1007.7
20220524164946 74 304 3.0 3.0 0.00 0.01 0.01 87 1007.8
20220524164445 74 165 1.0 4.0 0.00 0.01 0.01 87 1007.7
20220524163943 73 159 0.0 3.0 0.00 0.01 0.01 87 1007.5
20220524163443 73 287 2.0 3.0 0.00 0.01 0.01 87 1007.3
20220524162941 73 140 0.0 3.0 0.00 0.01 0.01 87 1007.3
20220524162440 73 228 2.0 5.0 0.00 0.01 0.01 87 1007.3
20220524161940 73 103 0.0 2.0 0.00 0.01 0.01 87 1007.3
20220524161439 73 202 0.0 5.0 0.00 0.01 0.01 87 1007.4
20220524160937 73 156 2.0 5.0 0.00 0.01 0.01 86 1007.2
20220524160435 73 105 3.0 5.0 0.00 0.01 0.01 87 1007.2
20220524155935 73 348 0.0 3.0 0.00 0.01 0.01 88 1007.5
20220524155433 72 165 2.0 3.0 0.00 0.01 0.01 88 1007.3
20220524154931 71 229 0.0 7.0 0.00 0.01 0.01 88 1007.5
20220524154431 72 151 1.0 6.0 0.00 0.01 0.01 88 1007.4
20220524153930 72 196 0.0 5.0 0.00 0.01 0.01 88 1007.6
20220524153430 72 266 3.0 3.0 0.00 0.01 0.01 88 1007.6
20220524152929 71 144 2.0 8.0 0.00 0.01 0.01 89 1007.5
20220524152428 71 0 0.0 7.0 0.00 0.01 0.01 89 1007.4
20220524151926 71 137 4.0 7.0 0.00 0.01 0.01 89 1007.5
20220524151425 71 101 2.0 7.0 0.00 0.01 0.01 90 1007.7
20220524150923 71 144 3.0 8.0 0.00 0.01 0.01 90 1007.7
20220524150421 71 117 0.0 5.0 0.00 0.01 0.01 90 1007.8
20220524145919 70 94 3.0 5.0 0.00 0.01 0.01 90 1007.6
20220524145418 71 156 4.0 7.0 0.00 0.01 0.01 90 1007.7
20220524144917 70 111 3.0 11.0 0.00 0.01 0.01 90 1007.6
20220524144415 71 170 3.0 7.0 0.00 0.01 0.01 90 1007.3
20220524143913 71 117 2.0 5.0 0.00 0.01 0.01 90 1007.5
20220524143412 71 96 3.0 5.0 0.00 0.01 0.01 90 1007.6
20220524142911 70 126 1.0 3.0 0.00 0.01 0.01 90 1007.4
20220524142410 70 132 2.0 5.0 0.00 0.01 0.01 90 1007.4
20220524141909 70 115 5.0 5.0 0.00 0.01 0.01 90 1007.2
20220524141409 70 101 0.0 5.0 0.00 0.01 0.01 91 1007.2
20220524140908 70 109 3.0 5.0 0.00 0.01 0.01 91 1007.1
20220524140408 70 161 4.0 4.0 0.00 0.01 0.01 91 1007.2
20220524135906 69 121 2.0 5.0 0.00 0.01 0.01 91 1007.1
20220524135404 69 103 4.0 4.0 0.00 0.01 0.01 92 1006.9
20220524134905 69 99 2.0 4.0 0.00 0.01 0.01 92 1006.9
20220524134404 69 210 4.0 6.0 0.00 0.01 0.01 92 1006.8
20220524133904 69 105 3.0 9.0 0.00 0.01 0.01 92 1007.1
20220524133403 69 166 0.0 6.0 0.00 0.01 0.01 93 1007.1
20220524132902 69 158 6.0 6.0 0.00 0.01 0.01 93 1007.2
20220524132402 69 127 3.0 6.0 0.00 0.01 0.01 93 1007.2
20220524131900 69 117 5.0 5.0 0.00 0.01 0.01 93 1007.2
20220524131358 68 62 3.0 7.0 0.00 0.01 0.01 93 1007.3
20220524130858 69 102 0.0 6.0 0.00 0.01 0.01 93 1007.5
20220524130357 68 95 3.0 4.0 0.00 0.01 0.01 93 1007.4
20220524125857 68 148 2.0 7.0 0.00 0.01 0.01 93 1007.3
20220524125357 68 146 4.0 8.0 0.00 0.01 0.01 93 1007.5
20220524124856 68 101 5.0 6.0 0.00 0.01 0.01 93 1007.9
20220524124354 68 150 5.0 9.0 0.00 0.01 0.01 94 1007.8
20220524123853 68 95 2.0 4.0 0.00 0.01 0.01 94 1007.7
20220524123353 68 141 4.0 6.0 0.00 0.01 0.01 94 1007.7
20220524122852 68 142 3.0 10.0 0.00 0.01 0.01 94 1007.7
20220524122351 68 128 2.0 5.0 0.00 0.01 0.01 94 1007.7
20220524121849 67 150 4.0 9.0 0.00 0.01 0.01 94 1007.8
20220524121348 68 18 0.0 3.0 0.00 0.01 0.01 95 1007.6
20220524120846 67 107 0.0 5.0 0.00 0.01 0.01 95 1007.5
20220524120344 67 157 3.0 5.0 0.00 0.01 0.01 95 1007.1
20220524115844 67 98 1.0 5.0 0.00 0.01 0.01 95 1007.3
20220524115341 67 145 4.0 6.0 0.00 0.01 0.01 95 1007.5
20220524114841 67 103 2.0 4.0 0.00 0.01 0.01 95 1007.3
20220524114341 67 130 3.0 7.0 0.00 0.01 0.01 95 1007.5
20220524113840 67 151 5.0 7.0 0.00 0.01 0.01 95 1007.7
20220524113339 67 103 1.0 9.0 0.00 0.01 0.01 95 1007.8
20220524112837 67 114 1.0 7.0 0.02 0.01 0.01 95 1007.8
20220524112336 67 110 2.0 5.0 0.02 0.01 0.01 95 1008.0
20220524111835 67 108 4.0 4.0 0.00 0.01 0.01 94 1008.1
20220524111334 67 251 1.0 5.0 0.00 0.01 0.01 94 1007.9
20220524110833 67 123 5.0 7.0 0.00 0.01 0.01 94 1008.0
20220524110331 67 70 6.0 7.0 0.00 0.01 0.01 93 1007.9
20220524105830 67 120 2.0 6.0 0.00 0.01 0.01 93 1008.2
20220524105329 67 90 0.0 5.0 0.00 0.01 0.01 93 1008.4
20220524104828 67 112 3.0 7.0 0.00 0.01 0.01 93 1008.4
20220524104327 67 162 6.0 6.0 0.00 0.01 0.01 93 1008.5
20220524103826 67 120 0.0 4.0 0.00 0.01 0.01 93 1008.6
20220524103325 67 168 4.0 6.0 0.00 0.01 0.01 93 1008.3
20220524102824 67 152 2.0 6.0 0.00 0.01 0.01 93 1008.7
20220524102323 67 166 0.0 2.0 0.00 0.01 0.01 93 1008.8
20220524101822 67 240 4.0 4.0 0.00 0.01 0.01 92 1008.9
20220524101322 67 180 0.0 5.0 0.00 0.01 0.01 92 1009.0
20220524100821 67 174 1.0 5.0 0.00 0.01 0.01 92 1009.2
20220524100319 67 112 2.0 5.0 0.00 0.01 0.01 92 1008.9
20220524095817 67 115 2.0 6.0 0.00 0.01 0.01 92 1008.7
20220524095316 67 83 3.0 5.0 0.00 0.01 0.01 92 1008.8
20220524094815 67 162 2.0 9.0 0.00 0.01 0.01 91 1008.9
20220524094313 67 199 2.0 8.0 0.00 0.01 0.01 91 1008.6
20220524093812 67 210 2.0 6.0 0.00 0.01 0.01 91 1008.6
20220524093311 67 150 4.0 8.0 0.00 0.01 0.01 91 1008.6
20220524092808 67 209 1.0 5.0 0.00 0.01 0.01 92 1008.7
20220524092308 67 164 2.0 4.0 0.00 0.01 0.01 92 1008.8
20220524091807 67 143 7.0 7.0 0.00 0.01 0.01 92 1008.8
20220524091306 67 120 2.0 8.0 0.00 0.01 0.01 92 1009.0
20220524090805 67 169 0.0 4.0 0.00 0.01 0.01 92 1008.9
20220524090303 67 120 0.0 4.0 0.00 0.01 0.01 92 1008.7
20220524085803 67 202 2.0 5.0 0.00 0.01 0.01 92 1008.7
20220524085302 67 180 2.0 3.0 0.00 0.01 0.01 92 1008.5
20220524084800 67 98 1.0 4.0 0.00 0.01 0.01 92 1008.7
20220524084259 67 135 3.0 5.0 0.00 0.01 0.01 92 1009.0
20220524083757 67 135 0.0 4.0 0.00 0.01 0.01 92 1009.1
20220524083256 67 102 2.0 5.0 0.00 0.01 0.01 92 1008.8
20220524082757 67 95 6.0 6.0 0.00 0.01 0.01 92 1008.9
20220524082255 67 104 4.0 5.0 0.00 0.01 0.01 92 1009.0
20220524081754 67 84 0.0 4.0 0.00 0.01 0.01 92 1009.1
20220524081254 67 79 2.0 3.0 0.00 0.01 0.01 93 1009.2
20220524080753 67 60 0.0 3.0 0.00 0.01 0.01 93 1009.3
20220524080253 67 147 2.0 2.0 0.00 0.01 0.01 93 1009.1
20220524075753 67 108 0.0 3.0 0.00 0.01 0.01 93 1008.9
20220524075252 67 80 0.0 3.0 0.00 0.01 0.01 93 1008.7
20220524074750 67 120 1.0 3.0 0.00 0.01 0.01 93 1009.1
20220524074249 67 90 0.0 2.0 0.00 0.01 0.01 93 1009.1
20220524073749 67 120 1.0 3.0 0.00 0.01 0.01 93 1008.8
20220524073248 67 95 2.0 4.0 0.00 0.01 0.01 93 1008.7
20220524072747 67 74 1.0 5.0 0.00 0.01 0.01 93 1008.6
20220524072246 67 117 2.0 4.0 0.02 0.01 0.01 93 1008.7
20220524071745 67 71 1.0 4.0 0.04 0.01 0.01 93 1008.8
20220524071244 67 78 2.0 4.0 0.02 0.00 0.00 92 1009.1
20220524070744 67 114 3.0 4.0 0.00 0.00 0.00 92 1009.2
20220524070244 67 24 2.0 4.0 0.00 0.00 0.00 92 1009.7
20220524065744 67 103 1.0 4.0 0.00 0.00 0.00 92 1009.6
20220524065243 67 90 1.0 4.0 0.00 0.00 0.00 92 1009.7
20220524064742 67 107 2.0 3.0 0.00 0.00 0.00 92 1010.2
20220524064240 68 106 2.0 2.0 0.00 0.00 0.00 92 1010.1
20220524063738 68 139 2.0 6.0 0.00 0.00 0.00 92 1010.1
20220524063237 68 102 0.0 4.0 0.00 0.00 0.00 91 1010.6
20220524062737 68 145 1.0 4.0 0.02 0.00 0.00 90 1010.3
20220524062236 68 110 3.0 4.0 0.02 0.00 0.00 90 1010.1
20220524061735 68 132 0.0 5.0 0.00 0.00 0.00 89 1010.1
20220524061233 68 90 0.0 4.0 0.00 0.00 0.00 89 1010.1
20220524060732 68 103 2.0 3.0 0.00 0.00 0.00 89 1010.3
20220524060232 68 144 2.0 6.0 0.00 0.00 0.00 89 1010.4
20220524055731 68 99 3.0 6.0 0.00 0.00 0.00 89 1010.3
20220524055232 69 118 4.0 5.0 0.00 0.00 0.00 89 1010.1
20220524054730 68 72 4.0 4.0 0.00 0.00 0.00 89 1010.1
20220524054229 68 112 3.0 4.0 0.00 0.00 0.00 89 1010.1
20220524053727 68 111 3.0 6.0 0.00 0.00 0.00 89 1010.2
20220524053225 69 107 6.0 6.0 0.00 0.00 0.00 89 1010.1
20220524052724 69 77 3.0 5.0 0.00 0.00 0.00 89 1010.0
20220524052223 69 86 3.0 5.0 0.00 0.00 0.00 89 1010.3
20220524051723 69 77 1.0 5.0 0.00 0.00 0.00 89 1010.4
20220524051221 69 85 5.0 7.0 0.00 0.00 0.00 89 1010.3
20220524050721 69 135 3.0 5.0 0.00 0.00 0.00 89 1010.4
20220524050220 69 101 3.0 5.0 0.00 0.00 0.00 89 1010.0
20220524045720 69 135 2.0 6.0 0.00 0.07 0.07 89 1010.1
20220524045219 69 124 4.0 5.0 0.00 0.07 0.07 90 1010.3
20220524044718 69 125 2.0 4.0 0.00 0.07 0.07 90 1010.3
20220524044217 69 115 2.0 4.0 0.00 0.07 0.07 90 1010.1